Stamford, CT (06905)

5:19 PM EDT on August 04, 2015 (GMT -0400)
Havermeyer Park | | Change Station
CLOSE
Current Station
Personal Weather Station
Location: Greenwich, CT
Elevation: 151 ft
Nearby Weather Stations

Elev 151 ft 41.05 °N, 73.57 °W | Updated 14 seconds ago

Clear
Clear
87.6 °F
Feels Like 86 °F
N
1.1
Wind Variable Wind from ESE
Gusts 2.5 mph

Today
High -- | Low -- °F
--% Chance of Precip.
Yesterday
High -- | Low -- °F
Precip. -- in
5:52 AM 8:07 PM
Waning Gibbous, 74% visible
Pressure 29.83 in
Visibility 10.0 miles
Clouds Scattered Clouds 7000 ft
Heat Index 86 °F
Dew Point 56 °F
Humidity 34%
Rainfall 0.05 in
Snow Depth Not available.
UV 2.0 out of 12
Pollen 7.40 out of 12
Air Quality Not available.
Flu Activity Not available.
METAR KHPN 042056Z 27009G18KT 10SM SCT070 31/13 A2984 RMK AO2 SLP099 T03060133 53002

More Conditions Fewer Conditions

Pressure 29.83 in
Visibility 10.0 miles
Clouds Scattered Clouds 7000 ft
Heat Index 86 °F
Dew Point 56 °F
Humidity 34%
Rainfall 0.05 in
Snow Depth Not available.
UV 2.0 out of 12
Pollen 7.40 out of 12
Air Quality Not available.
Flu Activity Not available.
METAR KHPN 042056Z 27009G18KT 10SM SCT070 31/13 A2984 RMK AO2 SLP099 T03060133 53002

More Conditions Fewer Conditions

10-Day Weather Forecast

×

Almanac

Astronomy

Aug. 04, 2015 Rise Set
Actual Time
Civil Twilight
Nautical Twilight
Astronomical Twilight
Moon
Length of Visible Light
Length of Day
Tomorrow will be .
, % of the Moon is Illuminated

Today's Extremes

State Highs State Lows

Community

WunderPhotos

Upload Photos

1,843,986 photos uploaded!

WunderBlogs® & News

Nearby

Air Quality

  Air Quality AQ Index Pollutant
Not available.

Snow Depth

Station Depth Elevation

Earthquake Activity

City Distance Mag. Time & Date
Minimum magnitude displayed is 2.5.

Coastal Water Temperatures

Place Temperature

Stations

Nearby Weather Stations

Station Location Temp. Windchill Dew Point Humidity Wind Precip. Elev Updated Type